Radar is unstable, so pay attention to the date and time in the image

Latest  Newer  Older  Last 2 hours animation  Current image  Latest image  Summary per 24h (testing)  Summary per 7d (testing) 
Cloud coverage sat images  Infrared sat images 
Real-time lightning map Aurora Forecast

All time is UTC (add 2 hours in wintertime, 3 hours in DST for Latvia local time)

2021/05/10 05:20 EVRA 100520Z 18014KT CAVOK 13/04 Q1016 NOSIG
2021/05/10 05:20 EVLA 100520Z AUTO 16009KT 130V190 9999 NCD 15/06 Q1013
2021/05/10 05:20 EVVA 100520Z AUTO 15007KT CAVOK 14/07 Q1013
2021/05/10 05:20 EYKA 100520Z 16011KT 130V200 CAVOK 13/02 Q1019
2021/05/10 05:20 EYPA 100520Z 15013KT CAVOK 14/05 Q1014
2021/05/10 05:20 EYSA 100520Z 17015KT CAVOK 12/04 Q1018 BLU NOSIG
2021/05/10 05:20 EYVI 100520Z 17011KT CAVOK 12/01 Q1021 NOSIG
2021/05/10 04:50 EEKA 100450Z 16007KT CAVOK 10/06 Q1013
2021/05/10 04:50 EEKE 100450Z 18004KT 150V230 CAVOK 09/06 Q1014

2021/05/10 05:20 EETN 100520Z 20012KT CAVOK 12/05 Q1014 NOSIG
2021/05/10 04:50 EETU 100450Z AUTO 19012KT 9999 OVC088/// 12/03 Q1017
   RIGA AIRPORT     EVRA               56 55N  023 58E   10   X     T          6 LV
   LIEPAJA INTL     EVLA        26406  56 31N  021 06E    4   X                8 LV
   VENTPILS         EVVA               57 21N  021 33E    6   X                8 LV
   KAUNAS           EYKA               54 54N  023 55E   77   X     T          6 LT
   PALANGA INTL     EYPA               55 55N  021 03E   10   X                6 LT
   SIAULIAI INTL    EYSA               55 54N  023 24E  135   X     T          6 LT
   VILNIUS INTL     EYVI        26730  54 38N  025 17E  197   X     T          6 LT
   KARDLA           EEKA        26116  58 59N  022 50E    4   X                8 EE
   KURESSAARE       EEKE               58 14N  022 31E    4   X                8 EE
   PARNU            EEPU               58 25N  024 28E   14   X                8 EE
   TALLINN          EETN        26038  59 24N  024 49E   40   X     T          8 EE
   TARTU            EETU               58 19N  026 41E   67   X                8 EE

rain/snow radar image from www.meteo.lv and METAR data from weather.noaa.gov